sensor_id;sensor_type;location;lat;lon;timestamp;pressure;altitude;pressure_sealevel;temperature;humidity
17209;BME280;8720;48.488;9.202;2023-04-03T00:00:36;97675.13;;;9.18;53.56
17209;BME280;8720;48.488;9.202;2023-04-03T00:03:03;97676.88;;;9.16;53.54
17209;BME280;8720;48.488;9.202;2023-04-03T00:05:32;97671.69;;;9.13;53.34
17209;BME280;8720;48.488;9.202;2023-04-03T00:07:59;97664.75;;;9.12;53.39
17209;BME280;8720;48.488;9.202;2023-04-03T00:10:28;97658.69;;;9.10;53.45
17209;BME280;8720;48.488;9.202;2023-04-03T00:12:55;97664.78;;;9.04;53.35
17209;BME280;8720;48.488;9.202;2023-04-03T00:15:23;97669.09;;;9.13;53.47
17209;BME280;8720;48.488;9.202;2023-04-03T00:17:50;97675.19;;;9.13;53.55
17209;BME280;8720;48.488;9.202;2023-04-03T00:20:18;97671.66;;;9.16;53.30
17209;BME280;8720;48.488;9.202;2023-04-03T00:22:46;97658.69;;;9.10;53.19
17209;BME280;8720;48.488;9.202;2023-04-03T00:25:14;97662.13;;;9.13;53.23
17209;BME280;8720;48.488;9.202;2023-04-03T00:27:41;97664.75;;;9.13;53.27
17209;BME280;8720;48.488;9.202;2023-04-03T00:30:13;97655.16;;;9.12;53.24
17209;BME280;8720;48.488;9.202;2023-04-03T00:32:41;97669.13;;;9.11;53.17
17209;BME280;8720;48.488;9.202;2023-04-03T00:35:09;97668.25;;;9.11;53.15
17209;BME280;8720;48.488;9.202;2023-04-03T00:37:36;97665.59;;;9.12;53.25
17209;BME280;8720;48.488;9.202;2023-04-03T00:40:07;97666.44;;;9.16;53.21
17209;BME280;8720;48.488;9.202;2023-04-03T00:42:36;97669.97;;;9.13;53.22
17209;BME280;8720;48.488;9.202;2023-04-03T00:45:32;97669.91;;;9.18;53.28
17209;BME280;8720;48.488;9.202;2023-04-03T00:48:04;97666.44;;;9.16;53.16
17209;BME280;8720;48.488;9.202;2023-04-03T00:50:37;97664.75;;;9.10;53.16
17209;BME280;8720;48.488;9.202;2023-04-03T00:53:08;97663.88;;;9.13;53.07
17209;BME280;8720;48.488;9.202;2023-04-03T00:55:39;97669.13;;;9.11;53.33
17209;BME280;8720;48.488;9.202;2023-04-03T00:58:09;97663.03;;;9.09;53.29
17209;BME280;8720;48.488;9.202;2023-04-03T01:00:40;97656.94;;;9.09;53.09
17209;BME280;8720;48.488;9.202;2023-04-03T01:03:10;97661.31;;;9.07;53.30
17209;BME280;8720;48.488;9.202;2023-04-03T01:05:40;97652.59;;;9.06;53.26
17209;BME280;8720;48.488;9.202;2023-04-03T01:08:08;97662.19;;;9.07;53.10
17209;BME280;8720;48.488;9.202;2023-04-03T01:10:35;97663.03;;;9.06;53.18
17209;BME280;8720;48.488;9.202;2023-04-03T01:13:22;97664.81;;;9.03;53.07
17209;BME280;8720;48.488;9.202;2023-04-03T01:15:50;97660.50;;;8.99;53.19
17209;BME280;8720;48.488;9.202;2023-04-03T01:18:18;97655.28;;;8.97;53.19
17209;BME280;8720;48.488;9.202;2023-04-03T01:21:41;97658.78;;;8.95;53.45
17209;BME280;8720;48.488;9.202;2023-04-03T01:24:33;97665.78;;;8.91;53.36
17209;BME280;8720;48.488;9.202;2023-04-03T01:27:07;97657.97;;;8.90;53.19
17209;BME280;8720;48.488;9.202;2023-04-03T01:29:38;97660.59;;;8.88;53.25
17209;BME280;8720;48.488;9.202;2023-04-03T01:32:08;97662.34;;;8.86;53.31
17209;BME280;8720;48.488;9.202;2023-04-03T01:34:35;97665.81;;;8.85;53.35
17209;BME280;8720;48.488;9.202;2023-04-03T01:37:04;97663.19;;;8.85;53.22
17209;BME280;8720;48.488;9.202;2023-04-03T01:39:31;97664.97;;;8.85;53.27
17209;BME280;8720;48.488;9.202;2023-04-03T01:41:59;97661.47;;;8.86;53.21
17209;BME280;8720;48.488;9.202;2023-04-03T01:44:33;97666.69;;;8.84;53.14
17209;BME280;8720;48.488;9.202;2023-04-03T01:47:01;97666.69;;;8.84;53.09
17209;BME280;8720;48.488;9.202;2023-04-03T01:49:31;97669.31;;;8.84;53.17
17209;BME280;8720;48.488;9.202;2023-04-03T01:51:58;97671.91;;;8.84;53.25
17209;BME280;8720;48.488;9.202;2023-04-03T01:54:26;97669.31;;;8.83;53.07
17209;BME280;8720;48.488;9.202;2023-04-03T01:56:53;97668.44;;;8.84;53.25
17209;BME280;8720;48.488;9.202;2023-04-03T01:59:21;97660.63;;;8.82;52.88
17209;BME280;8720;48.488;9.202;2023-04-03T02:04:16;97664.13;;;8.80;53.06
17209;BME280;8720;48.488;9.202;2023-04-03T02:06:45;97662.38;;;8.80;52.91
17209;BME280;8720;48.488;9.202;2023-04-03T02:09:13;97668.47;;;8.78;53.05
17209;BME280;8720;48.488;9.202;2023-04-03T02:11:40;97659.78;;;8.76;52.90
17209;BME280;8720;48.488;9.202;2023-04-03T02:14:07;97670.25;;;8.77;52.90
17209;BME280;8720;48.488;9.202;2023-04-03T02:16:35;97669.38;;;8.74;52.93
17209;BME280;8720;48.488;9.202;2023-04-03T02:19:02;97674.63;;;8.71;53.30
17209;BME280;8720;48.488;9.202;2023-04-03T02:21:30;97672.91;;;8.67;53.01
17209;BME280;8720;48.488;9.202;2023-04-03T02:23:59;97671.16;;;8.64;53.16
17209;BME280;8720;48.488;9.202;2023-04-03T02:26:26;97666.84;;;8.63;53.16
17209;BME280;8720;48.488;9.202;2023-04-03T02:28:53;97663.34;;;8.64;53.13
17209;BME280;8720;48.488;9.202;2023-04-03T02:31:21;97660.75;;;8.63;53.20
17209;BME280;8720;48.488;9.202;2023-04-03T02:33:50;97626.13;;;8.44;53.08
17209;BME280;8720;48.488;9.202;2023-04-03T02:36:18;97657.28;;;8.62;52.96
17209;BME280;8720;48.488;9.202;2023-04-03T02:38:51;97660.78;;;8.60;53.04
17209;BME280;8720;48.488;9.202;2023-04-03T02:41:20;97660.78;;;8.57;53.06
17209;BME280;8720;48.488;9.202;2023-04-03T02:43:49;97660.84;;;8.52;53.00
17209;BME280;8720;48.488;9.202;2023-04-03T02:46:16;97669.47;;;8.57;53.11
17209;BME280;8720;48.488;9.202;2023-04-03T02:48:44;97667.75;;;8.59;53.19
17209;BME280;8720;48.488;9.202;2023-04-03T02:51:11;97669.44;;;8.60;53.15
17209;BME280;8720;48.488;9.202;2023-04-03T02:53:38;97673.81;;;8.61;53.21
17209;BME280;8720;48.488;9.202;2023-04-03T02:56:12;97671.19;;;8.63;53.11
17209;BME280;8720;48.488;9.202;2023-04-03T02:58:40;97669.44;;;8.63;52.92
17209;BME280;8720;48.488;9.202;2023-04-03T03:01:09;97669.44;;;8.63;52.91
17209;BME280;8720;48.488;9.202;2023-04-03T03:03:37;97677.28;;;8.63;53.15
17209;BME280;8720;48.488;9.202;2023-04-03T03:06:07;97672.94;;;8.64;53.00
17209;BME280;8720;48.488;9.202;2023-04-03T03:08:36;97668.59;;;8.61;53.00
17209;BME280;8720;48.488;9.202;2023-04-03T03:11:04;97670.34;;;8.59;53.13
17209;BME280;8720;48.488;9.202;2023-04-03T03:13:33;97667.72;;;8.56;53.09
17209;BME280;8720;48.488;9.202;2023-04-03T03:16:02;97671.22;;;8.60;52.96
17209;BME280;8720;48.488;9.202;2023-04-03T03:18:30;97670.34;;;8.56;53.01
17209;BME280;8720;48.488;9.202;2023-04-03T03:21:00;97666.91;;;8.56;52.92
17209;BME280;8720;48.488;9.202;2023-04-03T03:23:29;97668.59;;;8.57;52.97
17209;BME280;8720;48.488;9.202;2023-04-03T03:26:00;97671.22;;;8.57;52.94
17209;BME280;8720;48.488;9.202;2023-04-03T03:28:27;97665.16;;;8.58;52.92
17209;BME280;8720;48.488;9.202;2023-04-03T03:30:58;97666.00;;;8.57;53.00
17209;BME280;8720;48.488;9.202;2023-04-03T03:33:27;97671.22;;;8.55;52.96
17209;BME280;8720;48.488;9.202;2023-04-03T03:35:55;97669.50;;;8.53;53.00
17209;BME280;8720;48.488;9.202;2023-04-03T03:38:23;97664.34;;;8.48;52.82
17209;BME280;8720;48.488;9.202;2023-04-03T03:40:51;97658.25;;;8.45;52.96
17209;BME280;8720;48.488;9.202;2023-04-03T03:43:20;97660.00;;;8.43;53.05
17209;BME280;8720;48.488;9.202;2023-04-03T03:45:51;97661.78;;;8.41;52.84
17209;BME280;8720;48.488;9.202;2023-04-03T03:48:19;97666.13;;;8.39;53.11
17209;BME280;8720;48.488;9.202;2023-04-03T03:50:49;97655.69;;;8.37;53.13
17209;BME280;8720;48.488;9.202;2023-04-03T03:53:19;97664.41;;;8.35;52.91
17209;BME280;8720;48.488;9.202;2023-04-03T03:55:47;97661.78;;;8.32;53.05
17209;BME280;8720;48.488;9.202;2023-04-03T03:58:15;97658.31;;;8.31;52.90
17209;BME280;8720;48.488;9.202;2023-04-03T04:00:43;97663.53;;;8.31;53.08
17209;BME280;8720;48.488;9.202;2023-04-03T04:03:11;97661.78;;;8.32;52.87
17209;BME280;8720;48.488;9.202;2023-04-03T04:05:38;97668.72;;;8.36;53.00
17209;BME280;8720;48.488;9.202;2023-04-03T04:08:07;97670.47;;;8.37;52.93
17209;BME280;8720;48.488;9.202;2023-04-03T04:10:35;97658.31;;;8.30;52.86
17209;BME280;8720;48.488;9.202;2023-04-03T04:13:02;97652.22;;;8.35;52.98
17209;BME280;8720;48.488;9.202;2023-04-03T04:15:31;97669.56;;;8.42;52.78
17209;BME280;8720;48.488;9.202;2023-04-03T04:17:58;97675.66;;;8.44;52.74
17209;BME280;8720;48.488;9.202;2023-04-03T04:20:25;97670.41;;;8.46;52.88
17209;BME280;8720;48.488;9.202;2023-04-03T04:22:53;97663.47;;;8.46;52.91
17209;BME280;8720;48.488;9.202;2023-04-03T04:25:23;97670.41;;;8.47;52.88
17209;BME280;8720;48.488;9.202;2023-04-03T04:27:50;97667.78;;;8.50;52.80
17209;BME280;8720;48.488;9.202;2023-04-03T04:30:18;97666.06;;;8.52;52.70
17209;BME280;8720;48.488;9.202;2023-04-03T04:32:49;97654.75;;;8.47;52.64
17209;BME280;8720;48.488;9.202;2023-04-03T04:35:16;97666.03;;;8.54;52.47
17209;BME280;8720;48.488;9.202;2023-04-03T04:37:46;97664.28;;;8.54;52.41
17209;BME280;8720;48.488;9.202;2023-04-03T04:40:14;97666.91;;;8.56;52.44
17209;BME280;8720;48.488;9.202;2023-04-03T04:42:44;97674.69;;;8.54;52.32
17209;BME280;8720;48.488;9.202;2023-04-03T04:45:11;97683.38;;;8.56;52.27
17209;BME280;8720;48.488;9.202;2023-04-03T04:47:41;97673.88;;;8.49;52.06
17209;BME280;8720;48.488;9.202;2023-04-03T04:50:10;97678.09;;;8.68;50.21
17209;BME280;8720;48.488;9.202;2023-04-03T04:52:38;97682.44;;;8.68;50.89
17209;BME280;8720;48.488;9.202;2023-04-03T04:55:08;97679.88;;;8.63;51.21
17209;BME280;8720;48.488;9.202;2023-04-03T04:57:35;97681.66;;;8.60;51.25
17209;BME280;8720;48.488;9.202;2023-04-03T05:00:08;97682.50;;;8.60;51.40
17209;BME280;8720;48.488;9.202;2023-04-03T05:02:36;97679.00;;;8.63;51.68
17209;BME280;8720;48.488;9.202;2023-04-03T05:05:04;97681.59;;;8.64;51.53
17209;BME280;8720;48.488;9.202;2023-04-03T05:07:32;97676.38;;;8.64;51.60
17209;BME280;8720;48.488;9.202;2023-04-03T05:10:02;97685.94;;;8.67;51.50
17209;BME280;8720;48.488;9.202;2023-04-03T05:12:32;97686.81;;;8.67;51.50
17209;BME280;8720;48.488;9.202;2023-04-03T05:15:03;97681.59;;;8.67;51.47
17209;BME280;8720;48.488;9.202;2023-04-03T05:17:33;97689.44;;;8.66;51.59
17209;BME280;8720;48.488;9.202;2023-04-03T05:20:02;97693.78;;;8.65;51.54
17209;BME280;8720;48.488;9.202;2023-04-03T05:22:30;97699.00;;;8.64;51.67
17209;BME280;8720;48.488;9.202;2023-04-03T05:25:05;97696.38;;;8.62;51.55
17209;BME280;8720;48.488;9.202;2023-04-03T05:27:34;97697.25;;;8.63;51.58
17209;BME280;8720;48.488;9.202;2023-04-03T05:30:02;97697.25;;;8.64;51.67
17209;BME280;8720;48.488;9.202;2023-04-03T05:32:33;97697.25;;;8.64;51.67
17209;BME280;8720;48.488;9.202;2023-04-03T05:35:12;97699.84;;;8.67;51.83
17209;BME280;8720;48.488;9.202;2023-04-03T05:37:41;97696.34;;;8.68;51.75
17209;BME280;8720;48.488;9.202;2023-04-03T05:40:09;97706.78;;;8.70;51.69
17209;BME280;8720;48.488;9.202;2023-04-03T05:42:41;97705.91;;;8.71;51.51
17209;BME280;8720;48.488;9.202;2023-04-03T05:45:09;97705.03;;;8.72;51.43
17209;BME280;8720;48.488;9.202;2023-04-03T05:47:38;97702.44;;;8.73;51.45
17209;BME280;8720;48.488;9.202;2023-04-03T05:50:08;97703.28;;;8.75;51.31
17209;BME280;8720;48.488;9.202;2023-04-03T05:52:38;97708.47;;;8.80;50.91
17209;BME280;8720;48.488;9.202;2023-04-03T05:55:08;97704.97;;;8.84;50.95
17209;BME280;8720;48.488;9.202;2023-04-03T05:57:36;97712.78;;;8.85;50.73
17209;BME280;8720;48.488;9.202;2023-04-03T06:00:06;97709.28;;;8.88;50.71
17209;BME280;8720;48.488;9.202;2023-04-03T06:02:42;97713.63;;;8.92;50.62
17209;BME280;8720;48.488;9.202;2023-04-03T06:05:16;97713.59;;;8.96;50.53
17209;BME280;8720;48.488;9.202;2023-04-03T06:07:43;97714.41;;;9.01;50.49
17209;BME280;8720;48.488;9.202;2023-04-03T06:10:12;97711.78;;;9.03;50.76
17209;BME280;8720;48.488;9.202;2023-04-03T06:12:39;97712.69;;;9.02;50.27
17209;BME280;8720;48.488;9.202;2023-04-03T06:15:08;97727.44;;;9.06;50.27
17209;BME280;8720;48.488;9.202;2023-04-03T06:17:36;97732.66;;;9.07;50.05
17209;BME280;8720;48.488;9.202;2023-04-03T06:20:06;97723.06;;;9.09;49.71
17209;BME280;8720;48.488;9.202;2023-04-03T06:22:34;97730.88;;;9.11;49.99
17209;BME280;8720;48.488;9.202;2023-04-03T06:25:02;97721.31;;;9.11;49.75
17209;BME280;8720;48.488;9.202;2023-04-03T06:27:30;97722.09;;;9.23;49.73
17209;BME280;8720;48.488;9.202;2023-04-03T06:29:58;97726.44;;;9.25;49.80
17209;BME280;8720;48.488;9.202;2023-04-03T06:32:25;97725.56;;;9.25;49.63
17209;BME280;8720;48.488;9.202;2023-04-03T06:34:52;97724.66;;;9.26;49.78
17209;BME280;8720;48.488;9.202;2023-04-03T06:37:23;97731.63;;;9.27;49.71
17209;BME280;8720;48.488;9.202;2023-04-03T06:39:52;97727.28;;;9.29;49.71
17209;BME280;8720;48.488;9.202;2023-04-03T06:42:19;97732.50;;;9.29;49.62
17209;BME280;8720;48.488;9.202;2023-04-03T06:44:54;97729.91;;;9.27;49.78
17209;BME280;8720;48.488;9.202;2023-04-03T06:47:21;97738.56;;;9.28;49.82
17209;BME280;8720;48.488;9.202;2023-04-03T06:49:48;97737.72;;;9.29;49.80
17209;BME280;8720;48.488;9.202;2023-04-03T06:52:16;97735.97;;;9.31;49.69
17209;BME280;8720;48.488;9.202;2023-04-03T06:54:44;97735.09;;;9.30;49.70
17209;BME280;8720;48.488;9.202;2023-04-03T06:57:13;97739.44;;;9.33;49.70
17209;BME280;8720;48.488;9.202;2023-04-03T06:59:41;97738.56;;;9.31;49.74
17209;BME280;8720;48.488;9.202;2023-04-03T07:02:11;97731.63;;;9.31;49.73
17209;BME280;8720;48.488;9.202;2023-04-03T07:04:39;97733.31;;;9.34;49.79
17209;BME280;8720;48.488;9.202;2023-04-03T07:07:06;97728.97;;;9.34;49.61
17209;BME280;8720;48.488;9.202;2023-04-03T07:09:34;97723.75;;;9.33;49.90
17209;BME280;8720;48.488;9.202;2023-04-03T07:12:03;97724.56;;;9.41;49.62
17209;BME280;8720;48.488;9.202;2023-04-03T07:14:31;97738.44;;;9.46;49.57
17209;BME280;8720;48.488;9.202;2023-04-03T07:16:58;97728.81;;;9.51;49.75
17209;BME280;8720;48.488;9.202;2023-04-03T07:19:25;97738.31;;;9.59;49.70
17209;BME280;8720;48.488;9.202;2023-04-03T07:21:54;97732.81;;;9.88;46.83
17209;BME280;8720;48.488;9.202;2023-04-03T07:24:21;97735.34;;;9.97;48.04
17209;BME280;8720;48.488;9.202;2023-04-03T07:26:50;97744.00;;;10.03;48.33
17209;BME280;8720;48.488;9.202;2023-04-03T07:29:19;97729.22;;;10.02;48.48
17209;BME280;8720;48.488;9.202;2023-04-03T07:31:47;97743.00;;;10.18;48.36
17209;BME280;8720;48.488;9.202;2023-04-03T07:34:15;97746.47;;;10.22;48.41
17209;BME280;8720;48.488;9.202;2023-04-03T07:36:42;97724.69;;;10.18;48.44
17209;BME280;8720;48.488;9.202;2023-04-03T07:39:10;97749.75;;;10.39;48.44
17209;BME280;8720;48.488;9.202;2023-04-03T07:41:37;97744.38;;;10.49;48.44
17209;BME280;8720;48.488;9.202;2023-04-03T07:44:05;97745.03;;;10.68;48.46
17209;BME280;8720;48.488;9.202;2023-04-03T07:46:37;97750.00;;;10.86;48.43
17209;BME280;8720;48.488;9.202;2023-04-03T07:49:04;97754.84;;;11.15;48.41
17209;BME280;8720;48.488;9.202;2023-04-03T07:51:35;97746.69;;;11.34;48.26
17209;BME280;8720;48.488;9.202;2023-04-03T07:54:05;97751.66;;;11.52;48.30
17209;BME280;8720;48.488;9.202;2023-04-03T07:56:33;97754.72;;;11.78;47.82
17209;BME280;8720;48.488;9.202;2023-04-03T07:59:01;97750.03;;;11.96;47.58
17209;BME280;8720;48.488;9.202;2023-04-03T08:01:28;97733.38;;;12.00;47.34
17209;BME280;8720;48.488;9.202;2023-04-03T08:04:00;97748.84;;;12.13;46.63
17209;BME280;8720;48.488;9.202;2023-04-03T08:06:27;97752.31;;;12.15;46.52
17209;BME280;8720;48.488;9.202;2023-04-03T08:08:56;97755.69;;;12.22;46.70
17209;BME280;8720;48.488;9.202;2023-04-03T08:11:24;97754.75;;;12.26;46.68
17209;BME280;8720;48.488;9.202;2023-04-03T08:13:53;97758.25;;;12.26;45.98
17209;BME280;8720;48.488;9.202;2023-04-03T08:16:24;97755.84;;;12.14;46.08
17209;BME280;8720;48.488;9.202;2023-04-03T08:18:53;97770.56;;;12.21;46.14
17209;BME280;8720;48.488;9.202;2023-04-03T08:21:23;97773.25;;;12.18;45.89
17209;BME280;8720;48.488;9.202;2023-04-03T08:23:52;97768.16;;;12.11;45.61
17209;BME280;8720;48.488;9.202;2023-04-03T08:26:21;97763.94;;;12.02;45.91
17209;BME280;8720;48.488;9.202;2023-04-03T08:28:49;97770.16;;;11.97;45.89
17209;BME280;8720;48.488;9.202;2023-04-03T08:31:19;97779.91;;;11.88;45.80
17209;BME280;8720;48.488;9.202;2023-04-03T08:33:47;97760.88;;;11.77;45.74
17209;BME280;8720;48.488;9.202;2023-04-03T08:36:23;97747.97;;;11.64;45.99
17209;BME280;8720;48.488;9.202;2023-04-03T08:38:53;97771.53;;;11.64;46.09
17209;BME280;8720;48.488;9.202;2023-04-03T08:41:31;97764.69;;;11.57;45.99
17209;BME280;8720;48.488;9.202;2023-04-03T08:44:14;97744.94;;;11.35;46.00
17209;BME280;8720;48.488;9.202;2023-04-03T08:47:04;97771.88;;;11.43;46.19
17209;BME280;8720;48.488;9.202;2023-04-03T08:49:41;97737.25;;;11.23;46.20
17209;BME280;8720;48.488;9.202;2023-04-03T08:52:17;97769.28;;;11.40;46.20
17209;BME280;8720;48.488;9.202;2023-04-03T08:54:52;97720.91;;;11.07;46.20
17209;BME280;8720;48.488;9.202;2023-04-03T08:57:29;97748.56;;;11.25;46.11
17209;BME280;8720;48.488;9.202;2023-04-03T09:00:15;97779.69;;;11.46;45.88
17209;BME280;8720;48.488;9.202;2023-04-03T09:02:46;97757.22;;;11.31;45.68
17209;BME280;8720;48.488;9.202;2023-04-03T09:05:17;97777.13;;;11.43;45.54
17209;BME280;8720;48.488;9.202;2023-04-03T09:07:57;97783.13;;;11.51;45.91
17209;BME280;8720;48.488;9.202;2023-04-03T09:10:30;97738.09;;;11.25;45.84
17209;BME280;8720;48.488;9.202;2023-04-03T09:13:06;97743.25;;;11.31;45.45
17209;BME280;8720;48.488;9.202;2023-04-03T09:15:37;97783.25;;;11.43;45.58
17209;BME280;8720;48.488;9.202;2023-04-03T09:18:13;97785.03;;;11.38;45.44
17209;BME280;8720;48.488;9.202;2023-04-03T09:20:52;97726.31;;;10.96;45.48
17209;BME280;8720;48.488;9.202;2023-04-03T09:23:30;97774.78;;;11.25;45.74
17209;BME280;8720;48.488;9.202;2023-04-03T09:26:02;97783.41;;;11.31;45.47
17209;BME280;8720;48.488;9.202;2023-04-03T09:28:38;97784.31;;;11.29;45.61
17209;BME280;8720;48.488;9.202;2023-04-03T09:31:19;97786.13;;;11.25;46.03
17209;BME280;8720;48.488;9.202;2023-04-03T09:33:49;97753.91;;;11.19;45.81
17209;BME280;8720;48.488;9.202;2023-04-03T09:36:41;97789.22;;;11.50;45.99
17209;BME280;8720;48.488;9.202;2023-04-03T09:39:14;97735.53;;;11.22;45.87
17209;BME280;8720;48.488;9.202;2023-04-03T09:41:55;97780.44;;;11.54;45.67
17209;BME280;8720;48.488;9.202;2023-04-03T09:44:26;97787.41;;;11.53;45.45
17209;BME280;8720;48.488;9.202;2023-04-03T09:46:54;97783.19;;;11.46;45.35
17209;BME280;8720;48.488;9.202;2023-04-03T09:49:21;97704.38;;;11.04;45.21
17209;BME280;8720;48.488;9.202;2023-04-03T09:51:49;97773.69;;;11.39;45.10
17209;BME280;8720;48.488;9.202;2023-04-03T09:54:35;97770.53;;;11.15;45.52
17209;BME280;8720;48.488;9.202;2023-04-03T09:57:12;97778.28;;;11.24;45.44
17209;BME280;8720;48.488;9.202;2023-04-03T09:59:46;97780.91;;;11.24;45.18
17209;BME280;8720;48.488;9.202;2023-04-03T10:02:30;97771.38;;;11.18;45.45
17209;BME280;8720;48.488;9.202;2023-04-03T10:04:59;97777.31;;;11.31;45.63
17209;BME280;8720;48.488;9.202;2023-04-03T10:07:32;97784.16;;;11.38;45.68
17209;BME280;8720;48.488;9.202;2023-04-03T10:10:18;97778.84;;;11.44;45.67
17209;BME280;8720;48.488;9.202;2023-04-03T10:12:46;97766.56;;;11.47;45.48
17209;BME280;8720;48.488;9.202;2023-04-03T10:15:16;97770.00;;;11.52;45.42
17209;BME280;8720;48.488;9.202;2023-04-03T10:17:55;97763.78;;;11.58;45.21
17209;BME280;8720;48.488;9.202;2023-04-03T10:20:37;97753.53;;;11.43;45.49
17209;BME280;8720;48.488;9.202;2023-04-03T10:23:17;97765.50;;;11.59;45.19
17209;BME280;8720;48.488;9.202;2023-04-03T10:26:02;97765.50;;;11.60;45.19
17209;BME280;8720;48.488;9.202;2023-04-03T10:28:46;97763.72;;;11.62;45.17
17209;BME280;8720;48.488;9.202;2023-04-03T10:31:22;97759.63;;;11.45;44.98
17209;BME280;8720;48.488;9.202;2023-04-03T10:34:02;97762.94;;;11.56;44.67
17209;BME280;8720;48.488;9.202;2023-04-03T10:36:43;97770.03;;;11.51;44.75
17209;BME280;8720;48.488;9.202;2023-04-03T10:39:25;97763.13;;;11.44;44.66
17209;BME280;8720;48.488;9.202;2023-04-03T10:42:08;97761.44;;;11.41;44.33
17209;BME280;8720;48.488;9.202;2023-04-03T10:44:52;97766.69;;;11.38;44.53
17209;BME280;8720;48.488;9.202;2023-04-03T10:47:29;97724.38;;;11.11;44.55
17209;BME280;8720;48.488;9.202;2023-04-03T10:50:14;97758.03;;;11.35;44.74
17209;BME280;8720;48.488;9.202;2023-04-03T10:52:56;97743.41;;;11.22;44.55
17209;BME280;8720;48.488;9.202;2023-04-03T10:55:36;97762.47;;;11.31;44.29
17209;BME280;8720;48.488;9.202;2023-04-03T10:58:11;97753.75;;;11.29;44.25
17209;BME280;8720;48.488;9.202;2023-04-03T11:00:48;97729.59;;;11.09;44.50
17209;BME280;8720;48.488;9.202;2023-04-03T11:03:29;97724.25;;;11.18;44.39
17209;BME280;8720;48.488;9.202;2023-04-03T11:06:02;97716.38;;;11.20;44.32
17209;BME280;8720;48.488;9.202;2023-04-03T11:08:38;97757.88;;;11.45;43.85
17209;BME280;8720;48.488;9.202;2023-04-03T11:11:15;97758.69;;;11.47;43.88
17209;BME280;8720;48.488;9.202;2023-04-03T11:13:52;97749.03;;;11.52;44.01
17209;BME280;8720;48.488;9.202;2023-04-03T11:16:29;97744.53;;;11.59;44.07
17209;BME280;8720;48.488;9.202;2023-04-03T11:19:03;97744.44;;;11.68;43.84
17209;BME280;8720;48.488;9.202;2023-04-03T11:21:37;97754.81;;;11.72;43.82
17209;BME280;8720;48.488;9.202;2023-04-03T11:24:17;97735.66;;;11.69;43.72
17209;BME280;8720;48.488;9.202;2023-04-03T11:26:50;97725.38;;;11.57;43.64
17209;BME280;8720;48.488;9.202;2023-04-03T11:29:24;97744.34;;;11.72;43.79
17209;BME280;8720;48.488;9.202;2023-04-03T11:32:17;97759.16;;;11.75;43.56
17209;BME280;8720;48.488;9.202;2023-04-03T11:34:56;97748.81;;;11.67;43.62
17209;BME280;8720;48.488;9.202;2023-04-03T11:37:31;97718.56;;;11.47;43.74
17209;BME280;8720;48.488;9.202;2023-04-03T11:40:04;97754.03;;;11.67;43.44
17209;BME280;8720;48.488;9.202;2023-04-03T11:42:37;97696.13;;;11.29;43.16
17209;BME280;8720;48.488;9.202;2023-04-03T11:45:49;97708.31;;;11.30;43.58
17209;BME280;8720;48.488;9.202;2023-04-03T11:48:48;97754.22;;;11.54;43.76
17209;BME280;8720;48.488;9.202;2023-04-03T11:51:40;97747.41;;;11.45;43.76
17209;BME280;8720;48.488;9.202;2023-04-03T11:54:47;97734.50;;;11.30;44.01
17209;BME280;8720;48.488;9.202;2023-04-03T11:58:03;97750.19;;;11.35;44.25
17209;BME280;8720;48.488;9.202;2023-04-03T12:04:08;97744.22;;;11.25;44.00
17209;BME280;8720;48.488;9.202;2023-04-03T12:07:12;97735.56;;;11.19;44.03
17209;BME280;8720;48.488;9.202;2023-04-03T12:10:17;97742.59;;;11.18;44.31
17209;BME280;8720;48.488;9.202;2023-04-03T12:12:59;97728.56;;;11.22;43.93
17209;BME280;8720;48.488;9.202;2023-04-03T12:15:50;97696.44;;;11.10;43.68
17209;BME280;8720;48.488;9.202;2023-04-03T12:19:01;97730.84;;;11.43;44.32
17209;BME280;8720;48.488;9.202;2023-04-03T12:22:10;97706.47;;;11.37;44.02
17209;BME280;8720;48.488;9.202;2023-04-03T12:24:39;97706.28;;;11.49;43.44
17209;BME280;8720;48.488;9.202;2023-04-03T12:27:40;97720.00;;;11.64;43.71
17209;BME280;8720;48.488;9.202;2023-04-03T12:30:22;97729.59;;;11.68;43.35
17209;BME280;8720;48.488;9.202;2023-04-03T12:33:17;97723.44;;;11.69;43.25
17209;BME280;8720;48.488;9.202;2023-04-03T12:36:03;97709.59;;;11.60;43.02
17209;BME280;8720;48.488;9.202;2023-04-03T12:39:03;97732.25;;;11.65;43.35
17209;BME280;8720;48.488;9.202;2023-04-03T12:41:44;97720.00;;;11.63;43.26
17209;BME280;8720;48.488;9.202;2023-04-03T12:44:34;97720.91;;;11.62;43.03
17209;BME280;8720;48.488;9.202;2023-04-03T12:47:24;97718.28;;;11.62;42.87
17209;BME280;8720;48.488;9.202;2023-04-03T12:49:54;97722.63;;;11.64;42.76
17209;BME280;8720;48.488;9.202;2023-04-03T12:52:37;97718.16;;;11.71;42.73
17209;BME280;8720;48.488;9.202;2023-04-03T12:55:15;97715.50;;;11.72;42.39
17209;BME280;8720;48.488;9.202;2023-04-03T12:57:44;97709.34;;;11.75;42.62
17209;BME280;8720;48.488;9.202;2023-04-03T13:00:36;97675.69;;;11.49;42.80
17209;BME280;8720;48.488;9.202;2023-04-03T13:03:21;97689.41;;;11.65;42.34
17209;BME280;8720;48.488;9.202;2023-04-03T13:05:50;97705.88;;;11.73;42.12
17209;BME280;8720;48.488;9.202;2023-04-03T13:08:19;97679.28;;;11.44;41.77
17209;BME280;8720;48.488;9.202;2023-04-03T13:10:56;97703.38;;;11.67;41.98
17209;BME280;8720;48.488;9.202;2023-04-03T13:13:26;97709.56;;;11.61;42.12
17209;BME280;8720;48.488;9.202;2023-04-03T13:15:55;97663.63;;;11.41;41.93
17209;BME280;8720;48.488;9.202;2023-04-03T13:18:31;97669.75;;;11.40;41.73
17209;BME280;8720;48.488;9.202;2023-04-03T13:21:04;97695.72;;;11.53;41.74
17209;BME280;8720;48.488;9.202;2023-04-03T13:23:38;97691.34;;;11.54;41.71
17209;BME280;8720;48.488;9.202;2023-04-03T13:26:07;97725.25;;;11.66;41.72
17209;BME280;8720;48.488;9.202;2023-04-03T13:28:37;97703.44;;;11.62;41.49
17209;BME280;8720;48.488;9.202;2023-04-03T13:31:18;97717.47;;;11.58;41.49
17209;BME280;8720;48.488;9.202;2023-04-03T13:33:56;97718.31;;;11.59;41.73
17209;BME280;8720;48.488;9.202;2023-04-03T13:36:29;97718.34;;;11.57;41.41
17209;BME280;8720;48.488;9.202;2023-04-03T13:39:21;97712.28;;;11.55;41.80
17209;BME280;8720;48.488;9.202;2023-04-03T13:41:51;97675.22;;;11.28;41.64
17209;BME280;8720;48.488;9.202;2023-04-03T13:44:32;97708.91;;;11.47;41.59
17209;BME280;8720;48.488;9.202;2023-04-03T13:47:17;97708.03;;;11.48;41.63
17209;BME280;8720;48.488;9.202;2023-04-03T13:49:59;97720.22;;;11.49;41.64
17209;BME280;8720;48.488;9.202;2023-04-03T13:52:31;97695.94;;;11.41;41.58
17209;BME280;8720;48.488;9.202;2023-04-03T13:55:18;97722.88;;;11.48;41.76